Time;durP1;ratioP1;P1;durP2;ratioP2;P2;SDS_P1;SDS_P2;PMS_P1;PMS_P2;Temp;Humidity;BMP_temperature;BMP_pressure;BME280_temperature;BME280_humidity;BME280_pressure;Samples;Min_cycle;Max_cycle;Signal;HPM_P1;HPM_P2
2022/03/06 00:00:32;;;;;;;26.45;16.48;;;23.30;40.10;;;;;;5045451;28;20095;-64
2022/03/06 00:03:01;;;;;;;25.00;16.55;;;23.20;40.20;;;;;;5043783;28;20052;-65
2022/03/06 00:05:29;;;;;;;18.92;14.82;;;23.10;40.30;;;;;;5045970;28;20094;-63
2022/03/06 00:07:59;;;;;;;25.10;14.27;;;23.10;40.60;;;;;;5042400;28;20421;-63
2022/03/06 00:10:26;;;;;;;25.15;14.88;;;22.90;40.70;;;;;;5045577;28;20045;-63
2022/03/06 00:12:53;;;;;;;21.58;14.85;;;22.80;40.90;;;;;;5042487;28;20041;-64
2022/03/06 00:15:22;;;;;;;25.55;15.02;;;22.80;41.10;;;;;;5041424;28;20057;-64
2022/03/06 00:17:50;;;;;;;28.65;13.63;;;22.70;41.30;;;;;;5043183;28;20139;-63
2022/03/06 00:20:17;;;;;;;22.20;15.00;;;22.60;41.50;;;;;;5042055;28;20517;-64
2022/03/06 00:22:45;;;;;;;18.73;13.43;;;22.50;41.50;;;;;;5042889;28;20513;-63
2022/03/06 00:25:13;;;;;;;18.27;12.50;;;22.40;41.70;;;;;;5043393;28;20116;-65
2022/03/06 00:27:40;;;;;;;20.45;14.00;;;22.40;41.90;;;;;;5041669;28;20050;-62
2022/03/06 00:30:08;;;;;;;19.25;14.00;;;22.20;42.50;;;;;;5045603;28;20049;-68
2022/03/06 00:32:36;;;;;;;20.50;12.98;;;22.20;42.20;;;;;;5047146;28;20041;-68
2022/03/06 00:35:03;;;;;;;21.25;14.05;;;22.10;42.20;;;;;;5047465;28;20421;-69
2022/03/06 00:37:30;;;;;;;19.80;12.70;;;22.00;42.30;;;;;;5048753;28;20045;-69
2022/03/06 00:39:58;;;;;;;18.50;12.85;;;21.90;42.40;;;;;;5047123;28;20040;-69
2022/03/06 00:42:26;;;;;;;19.77;11.90;;;21.90;43.20;;;;;;5047028;28;20122;-63
2022/03/06 00:44:54;;;;;;;18.60;13.13;;;21.80;42.70;;;;;;5047574;28;20037;-63
2022/03/06 00:47:22;;;;;;;18.20;12.30;;;21.70;42.80;;;;;;5047191;28;20198;-66
2022/03/06 00:49:49;;;;;;;20.20;11.27;;;21.70;42.90;;;;;;5048299;28;20049;-64
2022/03/06 00:52:16;;;;;;;16.90;12.73;;;21.60;43.00;;;;;;5046974;28;20136;-64
2022/03/06 00:54:44;;;;;;;19.20;11.93;;;21.60;43.10;;;;;;5046996;28;20033;-63
2022/03/06 00:57:11;;;;;;;17.80;13.27;;;21.50;43.10;;;;;;5046466;28;20045;-64
2022/03/06 00:59:40;;;;;;;25.58;13.15;;;21.40;43.20;;;;;;5047218;28;20127;-65
2022/03/06 01:02:07;;;;;;;20.67;12.15;;;21.40;43.20;;;;;;5046811;28;20051;-64
2022/03/06 01:04:35;;;;;;;19.13;11.50;;;21.30;43.40;;;;;;5048877;28;20045;-64
2022/03/06 01:07:02;;;;;;;16.65;11.98;;;21.30;43.40;;;;;;5047416;28;20516;-64
2022/03/06 01:09:29;;;;;;;15.27;11.70;;;21.20;43.50;;;;;;5047542;28;20155;-65
2022/03/06 01:11:57;;;;;;;19.85;12.90;;;21.10;43.60;;;;;;5046939;28;20037;-66
2022/03/06 01:14:24;;;;;;;18.15;12.90;;;21.10;43.70;;;;;;5045321;28;20094;-66
2022/03/06 01:16:53;;;;;;;16.40;10.43;;;21.10;43.80;;;;;;5046750;28;20053;-66
2022/03/06 01:19:20;;;;;;;15.02;12.07;;;21.10;44.20;;;;;;5045966;28;20045;-65
2022/03/06 01:21:48;;;;;;;22.15;11.45;;;21.00;44.20;;;;;;5045354;28;20041;-65
2022/03/06 01:24:15;;;;;;;20.08;10.45;;;21.00;44.30;;;;;;5045877;28;20041;-65
2022/03/06 01:26:42;;;;;;;17.85;11.75;;;20.90;44.20;;;;;;5046856;28;20083;-65
2022/03/06 01:29:09;;;;;;;14.45;10.70;;;20.90;44.40;;;;;;5047333;28;20037;-64
2022/03/06 01:31:37;;;;;;;18.30;11.65;;;20.80;44.40;;;;;;5046226;28;20121;-64
2022/03/06 01:34:06;;;;;;;15.93;11.32;;;20.80;44.50;;;;;;5046578;28;20064;-64
2022/03/06 01:36:33;;;;;;;16.50;10.68;;;20.70;44.60;;;;;;5061984;28;20048;-64
2022/03/06 01:39:01;;;;;;;15.80;11.07;;;20.70;44.70;;;;;;5043989;28;20067;-59
2022/03/06 01:41:28;;;;;;;17.20;11.20;;;20.70;44.70;;;;;;5046296;28;20494;-64
2022/03/06 01:43:55;;;;;;;11.43;9.27;;;20.70;44.80;;;;;;5063078;28;20291;-63
2022/03/06 01:46:22;;;;;;;14.93;10.73;;;20.70;44.90;;;;;;5047284;28;20059;-65
2022/03/06 01:48:49;;;;;;;16.15;11.00;;;20.60;44.90;;;;;;5046588;28;20043;-66
2022/03/06 01:51:18;;;;;;;18.25;12.32;;;20.60;45.00;;;;;;5046736;28;20098;-67
2022/03/06 01:53:45;;;;;;;11.68;9.40;;;20.60;45.10;;;;;;5046212;28;20575;-63
2022/03/06 01:56:13;;;;;;;16.27;11.77;;;20.50;45.20;;;;;;5045903;28;20071;-66
2022/03/06 01:58:41;;;;;;;17.52;12.05;;;20.60;45.30;;;;;;5047856;28;20047;-66
2022/03/06 02:01:08;;;;;;;16.90;11.05;;;20.50;45.30;;;;;;5044590;28;20271;-66
2022/03/06 02:03:36;;;;;;;14.82;10.48;;;20.50;45.40;;;;;;5045824;28;20060;-66
2022/03/06 02:06:05;;;;;;;16.13;10.18;;;20.40;45.40;;;;;;5046114;28;20098;-66
2022/03/06 02:08:33;;;;;;;17.42;10.85;;;20.40;45.50;;;;;;5045891;28;20505;-66
2022/03/06 02:11:01;;;;;;;14.10;10.60;;;20.30;45.60;;;;;;5046297;28;20049;-64
2022/03/06 02:13:28;;;;;;;17.50;10.38;;;20.30;45.70;;;;;;5045132;28;20124;-67
2022/03/06 02:15:57;;;;;;;13.40;9.68;;;20.30;45.70;;;;;;5045634;28;20052;-67
2022/03/06 02:18:24;;;;;;;12.82;9.50;;;20.30;45.90;;;;;;5045188;28;20044;-66
2022/03/06 02:20:51;;;;;;;12.90;9.55;;;20.30;45.90;;;;;;5045595;28;20087;-65
2022/03/06 02:23:20;;;;;;;13.40;9.63;;;20.30;45.90;;;;;;5045645;28;20708;-64
2022/03/06 02:25:47;;;;;;;17.00;10.65;;;20.30;46.00;;;;;;5047297;28;20047;-64
2022/03/06 02:28:14;;;;;;;13.38;8.48;;;20.20;46.00;;;;;;5045230;28;20045;-63
2022/03/06 02:30:43;;;;;;;13.68;9.85;;;20.20;46.10;;;;;;5045372;28;20041;-63
2022/03/06 02:33:13;;;;;;;13.25;9.77;;;20.20;46.10;;;;;;5045103;28;20729;-63
2022/03/06 02:35:40;;;;;;;12.80;10.10;;;20.20;46.30;;;;;;5045289;28;20060;-64
2022/03/06 02:38:07;;;;;;;11.88;8.93;;;20.10;46.20;;;;;;5041955;28;20075;-64
2022/03/06 02:40:40;;;;;;;12.98;8.95;;;20.10;46.20;;;;;;5047040;28;20044;-64
2022/03/06 02:43:08;;;;;;;11.70;8.77;;;20.10;46.30;;;;;;5042180;28;20040;-63
2022/03/06 02:45:37;;;;;;;15.82;9.98;;;20.00;46.30;;;;;;5045117;28;20052;-68
2022/03/06 02:48:04;;;;;;;10.82;9.55;;;20.10;46.50;;;;;;5043725;28;20502;-67
2022/03/06 02:50:34;;;;;;;14.23;9.75;;;20.00;46.70;;;;;;5045275;28;20365;-67
2022/03/06 02:53:03;;;;;;;10.88;8.50;;;20.00;46.80;;;;;;5045481;28;20055;-66
2022/03/06 02:55:30;;;;;;;10.82;7.88;;;20.00;46.80;;;;;;5046048;28;20036;-67
2022/03/06 02:57:59;;;;;;;11.15;9.15;;;20.00;46.70;;;;;;5044569;28;20120;-67
2022/03/06 03:00:27;;;;;;;12.63;9.13;;;20.00;47.40;;;;;;5045054;28;20509;-66
2022/03/06 03:02:54;;;;;;;15.68;8.82;;;19.90;46.80;;;;;;5044627;28;20041;-66
2022/03/06 03:05:21;;;;;;;10.82;9.43;;;19.90;46.80;;;;;;5045467;28;20407;-66
2022/03/06 03:07:51;;;;;;;12.95;9.07;;;19.90;46.80;;;;;;5046441;28;20079;-66
2022/03/06 03:10:19;;;;;;;13.10;9.88;;;19.90;46.80;;;;;;5045297;28;20033;-66
2022/03/06 03:12:46;;;;;;;9.75;7.95;;;19.90;46.80;;;;;;5045246;28;20039;-66
2022/03/06 03:15:15;;;;;;;14.43;9.02;;;19.80;46.80;;;;;;5045003;28;20037;-65
2022/03/06 03:17:42;;;;;;;11.63;9.32;;;19.80;46.80;;;;;;5044969;28;20045;-65
2022/03/06 03:20:11;;;;;;;10.18;7.82;;;19.80;46.80;;;;;;5045378;28;20041;-65
2022/03/06 03:22:38;;;;;;;11.60;8.38;;;19.80;46.80;;;;;;5044717;28;20541;-65
2022/03/06 03:25:06;;;;;;;13.48;8.80;;;19.70;46.80;;;;;;5047185;28;20051;-67
2022/03/06 03:27:33;;;;;;;11.73;8.20;;;19.70;46.80;;;;;;5048321;28;20041;-65
2022/03/06 03:30:00;;;;;;;10.00;7.63;;;19.70;46.80;;;;;;5048694;28;20045;-65
2022/03/06 03:32:29;;;;;;;8.60;7.38;;;19.70;46.80;;;;;;5048899;28;20033;-67
2022/03/06 03:34:56;;;;;;;10.30;8.07;;;19.70;46.90;;;;;;5049880;28;20040;-67
2022/03/06 03:37:23;;;;;;;10.00;8.18;;;19.70;46.80;;;;;;5049545;28;20118;-67
2022/03/06 03:39:50;;;;;;;12.40;7.50;;;19.70;46.90;;;;;;5045454;28;20328;-67
2022/03/06 03:42:17;;;;;;;9.07;6.88;;;19.70;47.00;;;;;;5049064;28;20041;-67
2022/03/06 03:44:44;;;;;;;8.27;7.40;;;19.70;47.70;;;;;;5049069;28;20416;-67
2022/03/06 03:47:11;;;;;;;13.13;9.07;;;19.60;47.00;;;;;;5048659;28;20059;-67
2022/03/06 03:49:39;;;;;;;9.05;8.02;;;19.60;47.10;;;;;;5049959;28;20052;-67
2022/03/06 03:52:07;;;;;;;11.30;8.52;;;19.60;47.10;;;;;;5048584;28;20051;-67
2022/03/06 03:54:35;;;;;;;12.75;8.48;;;19.60;47.10;;;;;;5048220;28;20048;-64
2022/03/06 03:57:03;;;;;;;13.55;8.50;;;19.60;47.10;;;;;;5048273;28;20413;-67
2022/03/06 03:59:30;;;;;;;12.38;7.68;;;19.60;47.40;;;;;;5048444;28;20505;-66
2022/03/06 04:01:57;;;;;;;10.43;8.02;;;19.50;47.50;;;;;;5048574;28;20080;-66
2022/03/06 04:04:26;;;;;;;8.02;6.57;;;19.50;47.40;;;;;;5048877;28;20041;-66
2022/03/06 04:06:54;;;;;;;8.20;6.95;;;19.50;47.40;;;;;;5048107;28;20045;-66
2022/03/06 04:09:21;;;;;;;8.70;6.55;;;19.50;47.40;;;;;;5048361;28;20060;-66
2022/03/06 04:11:48;;;;;;;8.60;6.47;;;19.50;47.40;;;;;;5046779;28;20034;-65
2022/03/06 04:14:16;;;;;;;11.60;7.22;;;19.50;47.40;;;;;;5048321;28;20048;-65
2022/03/06 04:16:43;;;;;;;9.82;6.80;;;19.40;47.40;;;;;;5048811;28;20136;-65
2022/03/06 04:19:10;;;;;;;14.05;7.00;;;19.40;48.10;;;;;;5043974;28;20056;-65
2022/03/06 04:21:38;;;;;;;11.20;7.45;;;19.40;47.50;;;;;;5046941;28;20037;-66
2022/03/06 04:24:07;;;;;;;11.43;7.75;;;19.40;47.50;;;;;;5047627;28;20041;-63
2022/03/06 04:26:35;;;;;;;8.65;6.30;;;19.40;47.50;;;;;;5048211;28;20033;-65
2022/03/06 04:29:02;;;;;;;9.93;7.63;;;19.40;47.50;;;;;;5048879;28;20056;-64
2022/03/06 04:31:30;;;;;;;14.00;7.65;;;19.40;47.50;;;;;;5049439;28;20049;-64
2022/03/06 04:33:57;;;;;;;8.32;6.75;;;19.40;47.50;;;;;;5046985;28;20078;-64
2022/03/06 04:36:24;;;;;;;9.95;6.93;;;19.30;47.50;;;;;;5046467;28;20047;-63
2022/03/06 04:38:51;;;;;;;8.23;6.63;;;19.30;47.50;;;;;;5043883;28;20052;-64
2022/03/06 04:41:19;;;;;;;11.30;6.97;;;19.30;47.40;;;;;;5047706;28;20048;-64
2022/03/06 04:43:47;;;;;;;10.82;7.22;;;19.30;47.50;;;;;;5049191;28;20045;-64
2022/03/06 04:46:14;;;;;;;9.70;5.90;;;19.30;47.50;;;;;;5046145;28;20544;-64
2022/03/06 04:48:41;;;;;;;10.13;6.50;;;19.30;47.40;;;;;;5047216;28;20037;-63
2022/03/06 04:51:08;;;;;;;8.32;6.45;;;19.30;47.50;;;;;;5047381;28;20037;-64
2022/03/06 04:53:35;;;;;;;10.45;6.50;;;19.30;47.40;;;;;;5047145;28;20069;-66
2022/03/06 04:56:02;;;;;;;9.48;6.88;;;19.30;47.40;;;;;;5047806;28;20608;-66
2022/03/06 04:58:31;;;;;;;9.95;7.15;;;19.30;47.40;;;;;;5048646;28;20041;-66
2022/03/06 05:00:58;;;;;;;8.77;7.20;;;19.30;47.40;;;;;;5045914;28;20095;-66
2022/03/06 05:03:25;;;;;;;10.70;6.40;;;19.30;47.40;;;;;;5042115;28;20193;-65
2022/03/06 05:05:52;;;;;;;9.98;7.47;;;19.20;47.40;;;;;;5045369;28;20043;-65
2022/03/06 05:08:19;;;;;;;10.88;7.10;;;19.20;47.40;;;;;;5047030;28;20041;-66
2022/03/06 05:10:46;;;;;;;11.95;7.38;;;19.20;47.40;;;;;;5048682;28;20073;-66
2022/03/06 05:13:13;;;;;;;12.57;7.35;;;19.20;47.40;;;;;;5046865;28;20045;-66
2022/03/06 05:15:42;;;;;;;10.52;7.95;;;19.20;47.30;;;;;;5046993;28;20611;-67
2022/03/06 05:18:09;;;;;;;11.75;7.53;;;19.20;47.30;;;;;;5045746;28;20130;-67
2022/03/06 05:20:36;;;;;;;11.68;7.88;;;19.20;47.30;;;;;;5047091;28;20103;-67
2022/03/06 05:23:03;;;;;;;8.88;6.30;;;19.20;47.30;;;;;;5047257;28;20048;-67
2022/03/06 05:25:30;;;;;;;10.55;7.00;;;19.20;47.40;;;;;;5048627;28;20128;-67
2022/03/06 05:27:58;;;;;;;10.68;7.45;;;19.10;47.40;;;;;;5046452;28;20036;-66
2022/03/06 05:30:25;;;;;;;10.05;7.07;;;19.20;47.40;;;;;;5045049;28;20041;-67
2022/03/06 05:32:53;;;;;;;10.32;7.30;;;19.10;47.30;;;;;;5046440;28;20029;-68
2022/03/06 05:35:20;;;;;;;10.73;6.80;;;19.10;47.30;;;;;;5046556;28;20033;-65
2022/03/06 05:37:47;;;;;;;10.90;7.70;;;19.10;47.30;;;;;;5044446;28;20048;-63
2022/03/06 05:40:14;;;;;;;8.90;5.97;;;19.10;47.30;;;;;;5046951;28;20857;-65
2022/03/06 05:42:41;;;;;;;12.13;6.78;;;19.10;47.40;;;;;;5046496;28;20037;-64
2022/03/06 05:45:09;;;;;;;10.05;7.00;;;19.10;47.40;;;;;;5046253;28;20051;-64
2022/03/06 05:47:36;;;;;;;11.07;7.03;;;19.10;47.30;;;;;;5046396;28;20531;-65
2022/03/06 05:50:07;;;;;;;10.02;7.32;;;19.10;47.30;;;;;;5046597;28;20592;-65
2022/03/06 05:52:34;;;;;;;11.85;7.55;;;19.10;47.30;;;;;;5046701;28;20448;-65
2022/03/06 05:55:03;;;;;;;8.77;6.28;;;19.00;47.30;;;;;;5046698;28;20056;-63
2022/03/06 05:57:30;;;;;;;10.93;6.85;;;19.10;47.30;;;;;;5046271;28;20564;-64
2022/03/06 05:59:57;;;;;;;11.02;7.25;;;19.00;47.30;;;;;;5045825;28;20588;-64
2022/03/06 06:02:24;;;;;;;9.38;7.38;;;19.00;47.30;;;;;;5046206;28;20051;-63
2022/03/06 06:04:51;;;;;;;11.32;7.07;;;19.00;47.50;;;;;;5048014;28;20429;-64
2022/03/06 06:07:20;;;;;;;9.20;6.15;;;19.00;47.20;;;;;;5056661;28;20042;-67
2022/03/06 06:09:47;;;;;;;10.57;7.15;;;19.00;47.20;;;;;;5038466;28;20090;-64
2022/03/06 06:12:14;;;;;;;10.77;6.82;;;19.00;47.20;;;;;;5045086;28;20091;-65
2022/03/06 06:14:41;;;;;;;10.73;6.75;;;19.00;47.20;;;;;;5045487;28;20484;-66
2022/03/06 06:17:09;;;;;;;10.23;6.55;;;19.00;47.20;;;;;;5046346;28;20052;-66
2022/03/06 06:19:36;;;;;;;9.95;6.93;;;19.00;47.20;;;;;;5047433;28;20049;-66
2022/03/06 06:22:03;;;;;;;10.25;6.15;;;19.00;47.20;;;;;;5045587;28;20119;-64
2022/03/06 06:24:33;;;;;;;11.05;7.72;;;19.00;47.30;;;;;;5045527;28;20057;-65
2022/03/06 06:27:01;;;;;;;14.00;6.65;;;19.00;47.20;;;;;;5045582;28;20049;-66
2022/03/06 06:29:28;;;;;;;9.75;7.00;;;18.90;47.20;;;;;;5045294;28;20783;-66
2022/03/06 06:31:56;;;;;;;10.75;6.82;;;18.90;47.30;;;;;;5047133;28;20117;-65
2022/03/06 06:34:23;;;;;;;12.27;7.75;;;18.90;47.30;;;;;;5046182;28;20182;-64
2022/03/06 06:36:51;;;;;;;8.73;7.32;;;18.90;47.30;;;;;;5045376;28;20047;-65
2022/03/06 06:39:18;;;;;;;11.02;7.53;;;18.90;47.30;;;;;;5044935;28;20094;-65
2022/03/06 06:41:46;;;;;;;12.82;7.75;;;18.90;47.20;;;;;;5045490;28;20047;-66
2022/03/06 06:44:13;;;;;;;10.90;6.88;;;18.90;47.30;;;;;;5045188;28;20049;-66
2022/03/06 06:46:41;;;;;;;14.85;7.57;;;18.90;47.30;;;;;;5047042;28;20045;-66
2022/03/06 06:49:10;;;;;;;9.98;7.05;;;18.90;47.20;;;;;;5045241;28;20425;-68
2022/03/06 06:51:38;;;;;;;12.77;6.60;;;18.90;47.20;;;;;;5045454;28;20049;-67
2022/03/06 06:54:05;;;;;;;11.45;7.15;;;18.90;47.20;;;;;;5044569;28;20122;-65
2022/03/06 06:56:33;;;;;;;10.52;7.00;;;19.00;47.20;;;;;;5045363;28;20029;-65
2022/03/06 06:59:01;;;;;;;15.00;7.95;;;18.90;47.10;;;;;;5045137;28;20041;-65
2022/03/06 07:01:28;;;;;;;12.52;7.43;;;18.90;47.20;;;;;;5046615;28;20083;-65
2022/03/06 07:03:55;;;;;;;10.95;6.70;;;18.90;47.20;;;;;;5043191;28;20051;-66
2022/03/06 07:06:22;;;;;;;16.77;8.63;;;19.00;47.20;;;;;;5044536;28;20048;-67
2022/03/06 07:08:50;;;;;;;21.98;10.63;;;18.90;47.20;;;;;;5001275;28;20072;-52
2022/03/06 07:11:17;;;;;;;18.25;10.50;;;18.90;46.10;;;;;;5037920;28;20041;-54
2022/03/06 07:13:44;;;;;;;15.15;9.80;;;19.00;46.50;;;;;;5041000;28;20116;-58
2022/03/06 07:16:13;;;;;;;18.40;10.63;;;19.10;46.20;;;;;;5041414;28;20110;-57
2022/03/06 07:18:41;;;;;;;18.23;10.60;;;19.30;45.80;;;;;;5040087;28;20150;-67
2022/03/06 07:21:08;;;;;;;20.83;10.50;;;19.50;45.60;;;;;;5039782;28;20106;-61
2022/03/06 07:23:35;;;;;;;15.57;10.27;;;19.60;45.00;;;;;;5040579;28;20044;-58
2022/03/06 07:26:02;;;;;;;14.35;9.70;;;19.90;44.60;;;;;;5040259;28;20049;-61
2022/03/06 07:28:29;;;;;;;15.65;9.38;;;20.00;44.10;;;;;;5044820;28;20140;-62
2022/03/06 07:30:56;;;;;;;18.17;10.80;;;20.20;43.60;;;;;;5040638;28;20051;-62
2022/03/06 07:33:25;;;;;;;16.85;10.43;;;20.40;43.40;;;;;;5040510;28;20075;-57
2022/03/06 07:35:52;;;;;;;14.82;10.73;;;20.60;43.10;;;;;;5040139;28;20048;-58
2022/03/06 07:38:19;;;;;;;19.08;10.27;;;20.70;42.80;;;;;;5040522;28;20128;-57
2022/03/06 07:40:46;;;;;;;15.82;9.02;;;20.90;42.60;;;;;;5045602;28;20501;-53
2022/03/06 07:43:14;;;;;;;18.90;10.50;;;21.00;42.30;;;;;;5047108;28;20737;-52
2022/03/06 07:45:41;;;;;;;16.02;9.68;;;21.10;42.00;;;;;;5041158;28;20041;-57
2022/03/06 07:48:08;;;;;;;21.20;8.52;;;21.30;41.80;;;;;;5041341;28;20055;-56
2022/03/06 07:50:37;;;;;;;15.38;8.77;;;21.40;41.60;;;;;;5035401;28;20034;-61
2022/03/06 07:53:04;;;;;;;17.65;9.43;;;21.60;41.40;;;;;;5044425;28;20283;-57
2022/03/06 07:55:31;;;;;;;13.35;8.93;;;21.70;40.90;;;;;;5041695;28;20052;-54
2022/03/06 07:57:58;;;;;;;14.70;11.05;;;21.90;40.60;;;;;;5029770;28;20044;-55
2022/03/06 08:00:25;;;;;;;13.82;9.45;;;22.00;40.20;;;;;;5041305;28;20041;-59
2022/03/06 08:02:55;;;;;;;14.52;8.85;;;22.20;40.70;;;;;;5040351;28;20052;-54
2022/03/06 08:05:24;;;;;;;11.10;7.82;;;22.30;41.00;;;;;;5042510;28;20077;-55
2022/03/06 08:07:52;;;;;;;11.00;7.68;;;22.30;41.10;;;;;;5041464;28;20532;-54
2022/03/06 08:10:19;;;;;;;11.55;6.45;;;22.30;41.00;;;;;;5042033;28;20049;-52
2022/03/06 08:12:48;;;;;;;15.13;7.25;;;22.30;41.20;;;;;;5043777;28;20047;-54
2022/03/06 08:15:16;;;;;;;15.10;7.13;;;22.30;41.30;;;;;;5041033;28;20059;-51
2022/03/06 08:17:43;;;;;;;16.85;7.55;;;22.20;41.30;;;;;;5046792;28;20037;-49
2022/03/06 08:20:11;;;;;;;9.00;6.60;;;22.20;41.50;;;;;;5047896;28;20052;-53
2022/03/06 08:22:38;;;;;;;14.57;6.53;;;22.10;41.60;;;;;;5047829;28;20052;-48
2022/03/06 08:25:08;;;;;;;9.95;6.65;;;22.00;41.70;;;;;;5047439;28;20056;-49
2022/03/06 08:27:37;;;;;;;14.10;7.38;;;21.90;41.80;;;;;;5047740;28;20043;-47
2022/03/06 08:30:06;;;;;;;11.05;8.05;;;21.80;41.90;;;;;;5047876;28;20075;-48
2022/03/06 08:32:33;;;;;;;9.05;7.47;;;21.80;42.00;;;;;;5046530;28;20033;-48
2022/03/06 08:35:00;;;;;;;9.63;7.07;;;21.60;42.10;;;;;;5048484;28;20125;-47
2022/03/06 08:37:27;;;;;;;9.93;6.60;;;21.60;42.10;;;;;;5049035;28;20047;-51
2022/03/06 08:39:54;;;;;;;9.35;6.15;;;21.50;42.20;;;;;;5045390;28;20043;-49
2022/03/06 08:42:23;;;;;;;7.90;6.00;;;21.40;42.20;;;;;;5046584;28;20625;-50
2022/03/06 08:44:50;;;;;;;10.65;7.97;;;21.40;42.30;;;;;;5047886;28;20044;-52
2022/03/06 08:47:17;;;;;;;10.45;6.38;;;21.30;42.30;;;;;;5047411;28;20037;-49
2022/03/06 08:49:44;;;;;;;8.77;5.75;;;21.30;42.40;;;;;;5049216;28;20045;-48
2022/03/06 08:52:11;;;;;;;9.32;7.10;;;21.20;42.40;;;;;;5047581;28;20405;-53
2022/03/06 08:54:39;;;;;;;7.82;6.45;;;21.10;42.40;;;;;;5047029;28;20569;-48
2022/03/06 08:57:06;;;;;;;9.75;6.57;;;21.10;42.50;;;;;;5047329;28;20501;-50
2022/03/06 08:59:34;;;;;;;10.13;6.65;;;21.10;42.50;;;;;;5047295;28;20079;-49
2022/03/06 09:02:01;;;;;;;10.50;7.00;;;21.00;42.50;;;;;;5047929;28;20045;-53
2022/03/06 09:04:31;;;;;;;9.68;7.55;;;21.00;42.60;;;;;;5048329;28;20399;-53
2022/03/06 09:06:58;;;;;;;9.18;5.90;;;20.90;42.60;;;;;;5047385;28;20037;-53
2022/03/06 09:09:25;;;;;;;6.07;5.47;;;20.90;42.60;;;;;;5046347;28;20069;-50
2022/03/06 09:11:53;;;;;;;11.07;6.82;;;20.90;42.70;;;;;;5046263;28;20124;-52
2022/03/06 09:14:20;;;;;;;7.00;5.68;;;20.80;42.70;;;;;;5047384;28;20052;-49
2022/03/06 09:16:48;;;;;;;10.30;6.47;;;20.80;42.70;;;;;;5049177;28;20417;-51
2022/03/06 09:19:15;;;;;;;11.27;6.70;;;20.70;42.70;;;;;;5047303;28;20060;-48
2022/03/06 09:21:43;;;;;;;12.40;6.57;;;20.70;42.70;;;;;;5046774;28;20060;-55
2022/03/06 09:24:11;;;;;;;8.20;6.57;;;20.70;42.80;;;;;;5046771;28;20045;-47
2022/03/06 09:26:38;;;;;;;7.93;5.82;;;20.60;42.70;;;;;;5047222;28;20118;-51
2022/03/06 09:29:05;;;;;;;7.57;4.97;;;20.60;42.70;;;;;;5047157;28;20060;-50
2022/03/06 09:31:32;;;;;;;9.23;6.60;;;20.60;42.70;;;;;;5048392;28;20509;-52
2022/03/06 09:34:01;;;;;;;8.27;5.97;;;20.60;42.70;;;;;;5047291;28;20037;-48
2022/03/06 09:36:28;;;;;;;7.88;5.90;;;20.60;42.70;;;;;;5048245;28;20036;-48
2022/03/06 09:38:55;;;;;;;9.02;5.95;;;20.60;42.70;;;;;;5049338;28;20057;-50
2022/03/06 09:41:26;;;;;;;7.60;5.85;;;20.60;42.70;;;;;;5048055;28;20033;-48
2022/03/06 09:43:56;;;;;;;7.95;5.85;;;20.60;42.70;;;;;;5051932;28;20619;-48
2022/03/06 09:46:24;;;;;;;6.80;4.93;;;20.50;42.70;;;;;;5047991;28;20517;-48
2022/03/06 09:48:51;;;;;;;8.15;5.60;;;20.50;42.70;;;;;;5046697;28;20505;-47
2022/03/06 09:51:21;;;;;;;6.60;5.28;;;20.50;42.70;;;;;;5046808;28;20132;-47
2022/03/06 09:53:49;;;;;;;7.43;5.63;;;20.50;42.60;;;;;;5046475;28;20152;-48
2022/03/06 09:56:16;;;;;;;6.65;5.28;;;20.50;42.60;;;;;;5046526;28;20068;-48
2022/03/06 09:58:44;;;;;;;6.55;4.88;;;20.50;42.60;;;;;;5047948;28;20051;-47
2022/03/06 10:01:12;;;;;;;6.47;4.80;;;20.50;42.60;;;;;;5046083;28;20067;-48
2022/03/06 10:03:39;;;;;;;6.18;4.88;;;20.50;42.50;;;;;;5046641;28;20083;-49
2022/03/06 10:06:07;;;;;;;5.93;5.13;;;20.60;42.50;;;;;;5046090;28;20057;-50
2022/03/06 10:08:35;;;;;;;6.35;5.18;;;20.50;42.50;;;;;;5046239;28;20037;-52
2022/03/06 10:11:04;;;;;;;7.43;4.53;;;20.60;42.50;;;;;;5046684;28;20044;-49
2022/03/06 10:13:34;;;;;;;6.53;5.30;;;20.60;42.50;;;;;;5047452;28;20044;-48
2022/03/06 10:16:07;;;;;;;5.53;4.80;;;20.60;42.40;;;;;;5045799;28;20081;-49
2022/03/06 10:18:36;;;;;;;6.60;4.18;;;20.60;42.30;;;;;;5045911;28;20090;-47
2022/03/06 10:21:11;;;;;;;6.78;4.80;;;20.60;42.30;;;;;;5045318;28;20052;-49
2022/03/06 10:23:39;;;;;;;5.15;4.25;;;20.60;42.30;;;;;;5046343;28;20497;-53
2022/03/06 10:26:09;;;;;;;9.40;4.15;;;20.60;42.20;;;;;;5044939;28;20119;-49
2022/03/06 10:29:04;;;;;;;5.18;4.15;;;20.60;42.10;;;;;;5047259;28;20055;-49
2022/03/06 10:31:33;;;;;;;4.30;3.40;;;20.70;42.10;;;;;;4985265;28;20050;-49
2022/03/06 10:34:04;;;;;;;3.95;3.38;;;20.60;42.00;;;;;;4982421;28;20269;-49
2022/03/06 10:36:33;;;;;;;5.72;4.47;;;20.70;42.00;;;;;;4983329;28;20128;-49
2022/03/06 10:39:03;;;;;;;5.25;4.10;;;20.70;41.90;;;;;;4979843;28;20104;-48
2022/03/06 10:41:39;;;;;;;4.65;3.75;;;20.80;41.90;;;;;;4983762;28;20408;-48
2022/03/06 10:44:08;;;;;;;4.90;4.50;;;20.80;41.70;;;;;;4983912;28;20085;-51
2022/03/06 10:46:36;;;;;;;3.38;3.08;;;20.80;41.70;;;;;;4984799;28;20042;-47
2022/03/06 10:49:08;;;;;;;6.22;3.40;;;20.80;41.70;;;;;;4983298;28;20050;-49
2022/03/06 10:51:40;;;;;;;4.97;3.58;;;20.90;41.70;;;;;;4983486;28;20050;-48
2022/03/06 10:54:09;;;;;;;3.72;3.35;;;20.90;41.60;;;;;;4983322;28;20056;-51
2022/03/06 10:56:37;;;;;;;4.70;3.38;;;20.90;41.50;;;;;;4983685;28;20749;-49
2022/03/06 10:59:06;;;;;;;3.97;3.22;;;21.00;41.20;;;;;;4983860;28;20077;-53
2022/03/06 11:01:34;;;;;;;4.68;3.92;;;21.10;41.00;;;;;;4968590;28;20046;-51
2022/03/06 11:04:03;;;;;;;3.65;3.08;;;21.10;40.90;;;;;;4983294;28;20050;-49
2022/03/06 11:06:38;;;;;;;5.35;2.88;;;21.20;40.70;;;;;;4977052;28;20155;-51
2022/03/06 11:09:07;;;;;;;2.75;2.55;;;21.20;40.60;;;;;;5045210;28;20068;-47
2022/03/06 11:11:35;;;;;;;3.13;2.83;;;21.30;40.70;;;;;;5045463;28;20145;-48
2022/03/06 11:14:02;;;;;;;4.60;3.78;;;21.30;40.60;;;;;;5045986;28;20045;-51
2022/03/06 11:16:30;;;;;;;5.53;3.33;;;21.40;40.50;;;;;;5046565;28;20095;-49
2022/03/06 11:18:58;;;;;;;3.05;2.33;;;21.40;40.50;;;;;;5044959;28;20040;-47
2022/03/06 11:21:27;;;;;;;3.25;2.80;;;21.50;40.40;;;;;;5045911;28;20052;-49
2022/03/06 11:23:58;;;;;;;4.03;3.40;;;21.50;40.40;;;;;;5045635;28;20041;-50
2022/03/06 11:26:56;;;;;;;6.30;2.97;;;21.60;40.30;;;;;;5045978;28;20140;-55
2022/03/06 11:30:01;;;;;;;4.60;2.90;;;21.70;40.20;;;;;;5044946;28;20044;-48
2022/03/06 11:32:31;;;;;;;3.70;2.03;;;21.70;40.10;;;;;;5040498;28;20041;-54
2022/03/06 11:35:05;;;;;;;3.30;2.25;;;21.70;40.10;;;;;;5046220;28;20041;-48
2022/03/06 11:37:46;;;;;;;5.13;2.72;;;21.80;40.00;;;;;;5045211;28;20037;-50
2022/03/06 11:40:45;;;;;;;1.88;1.42;;;21.90;40.00;;;;;;5043944;28;20080;-49
2022/03/06 11:43:29;;;;;;;1.90;1.75;;;21.90;39.80;;;;;;5044725;28;20052;-49
2022/03/06 11:46:12;;;;;;;3.80;2.78;;;21.90;39.80;;;;;;5044951;28;20044;-50
2022/03/06 11:49:06;;;;;;;2.97;1.48;;;22.00;39.80;;;;;;5048360;28;20047;-47
2022/03/06 11:51:33;;;;;;;3.30;2.40;;;22.10;39.70;;;;;;5039289;28;20041;-48
2022/03/06 11:54:04;;;;;;;2.17;1.70;;;22.10;39.70;;;;;;5048955;28;20041;-49
2022/03/06 11:56:58;;;;;;;2.38;1.95;;;22.10;39.60;;;;;;5044320;28;20049;-51
2022/03/06 11:59:44;;;;;;;4.32;2.15;;;22.20;39.50;;;;;;5048625;28;20045;-52
2022/03/06 12:02:21;;;;;;;1.33;0.98;;;22.30;39.50;;;;;;5048676;28;20044;-48
2022/03/06 12:04:56;;;;;;;2.53;1.90;;;22.30;39.40;;;;;;5049590;28;20053;-47
2022/03/06 12:07:25;;;;;;;3.67;1.63;;;22.40;39.30;;;;;;5049812;28;20060;-48
2022/03/06 12:09:54;;;;;;;2.03;1.83;;;22.40;39.30;;;;;;5048944;28;20044;-52
2022/03/06 12:12:22;;;;;;;3.42;1.83;;;22.50;39.20;;;;;;5048484;28;20049;-50
2022/03/06 12:14:53;;;;;;;2.13;1.92;;;22.50;39.10;;;;;;5048782;28;20493;-49
2022/03/06 12:17:38;;;;;;;2.08;1.95;;;22.60;39.10;;;;;;5048661;28;20361;-51
2022/03/06 12:20:29;;;;;;;1.67;1.58;;;22.60;38.90;;;;;;5048512;28;20053;-49
2022/03/06 12:23:06;;;;;;;3.15;1.60;;;22.70;38.90;;;;;;5047293;28;20055;-51
2022/03/06 12:25:38;;;;;;;0.75;0.75;;;22.70;38.80;;;;;;5049200;28;20041;-48
2022/03/06 12:28:31;;;;;;;1.50;0.85;;;22.80;38.80;;;;;;5048058;28;20148;-52
2022/03/06 12:31:20;;;;;;;3.22;1.27;;;22.80;38.70;;;;;;5044885;28;20036;-47
2022/03/06 12:33:47;;;;;;;1.33;0.98;;;22.90;39.20;;;;;;5048146;28;20620;-51
2022/03/06 12:36:23;;;;;;;1.42;1.33;;;22.90;38.50;;;;;;5046903;28;20037;-52
2022/03/06 12:38:54;;;;;;;;;;;23.00;38.50;;;;;;5046157;28;20052;-49
2022/03/06 12:41:22;;;;;;;1.88;1.30;;;22.90;38.50;;;;;;5047949;28;19934;-50
2022/03/06 12:43:57;;;;;;;1.42;1.33;;;23.00;38.50;;;;;;5049600;28;20037;-52
2022/03/06 12:46:26;;;;;;;2.38;1.02;;;23.10;38.40;;;;;;5048397;28;20045;-48